Impacts METAR Board
IDs:

KTPA - Tampa Intl Arpt, FL, US

Updated at: 1700 UTC 23 Jul 2018
Potential Impact None Slight Moderate High
Time 23/05Z 23/06Z 23/07Z 23/08Z 23/09Z 23/10Z 23/11Z 23/12Z 23/13Z 23/14Z 23/15Z 23/16Z 23/17Z
Temp74 75 77 79 73 72 74 76 81 84 87 86 87
Dewpt71 72 74 76 68 69 70 71 75 74 74 76 72
Altim29.89 29.87 29.86 29.85 29.87 29.84 29.84 29.83 29.82 29.83 29.84 29.83 29.83
VIS10 10 10 10 4 10 10 10 10 10 10 10 10
CIG34 90 -- 120 29 55 110 120 200 240 240 220 170
CoverBKNBKNSCTBKNBKNBKNOVCOVCBKNBKNBKNBKNBKN
FltCatVFRVFRVFRVFRMVFRVFRVFRVFRVFRVFRVFRVFRVFR
WX------TS-TSRA-RA--------------
WDir900170190250170160170210210210220310
WSpd8 6 7 8 6 7 5 4 8 9 13 18 10
WGst-- -- -- -- -- -- -- -- -- -- 18 23 --
Raw hourly METARs
KTPA 230453Z 09008KT 10SM SCT005 BKN034 BKN060 23/22 A2989 RMK AO2 LTG DSNT S AND SW RAE0354B21E32 TSE0354 SLP120 OCNL LTGICCA DSNT SE AND NW CB DSNT SE AND NW SCT005 V BKN P0000 T02330217 403330233
KTPA 230553Z VRB06KT 10SM FEW005 SCT035 BKN090 24/22 A2987 RMK AO2 SLP114 OCNL LTGIC DSNT SE AND NW CB DSNT SE AND NW 60015 T02390222 10306 20233 58014
KTPA 230653Z COR 17007KT 10SM FEW005 FEW035 SCT090 25/23 A2986 RMK AO2 LTG DSNT SW AND W SLP112 FRQ LTGICCA DSNT W AND NW-N CB DSNT W-N T02500233
KTPA 230753Z 19008KT 10SM TS FEW035CB SCT090 BKN120 26/24 A2985 RMK AO2 LTG DSNT ALQDS TSB24 SLP107 FRQ LTGICCA SW-W AND DSNT NW-N TS SW-W MOV SE AND DSNT NW-N T02610244
KTPA 230853Z 25006KT 4SM -TSRA SCT005 BKN029CB BKN090 BKN130 23/20 A2987 RMK AO2 PK WND 28029/0829 LTG DSNT ALQDS RAB28 PRESFR SLP113 CONS LTGICCACG OHD AND E-S TS OHD AND E-S MOV SE CB DSNT NE-SW P0033 60033 T0228020
KTPA 230953Z 17007KT 10SM -RA SCT030 BKN055 BKN110 22/21 A2984 RMK AO2 LTG DSNT E-S TSE31 SLP103 FRQ LTGICCA DSNT E-S CB DSNT NE-S P0004 T02220206
KTPA 231053Z 16005KT 10SM FEW030 BKN110 OVC200 23/21 A2984 RMK AO2 RAE0958 SLP104 CB DSNT SW-W P0000 T02330211
KTPA 231153Z 17004KT 10SM FEW013 BKN120 OVC210 24/22 A2983 RMK AO2 SLP102 60037 70052 T02440217 10261 20222 56012
KTPA 231253Z 21008KT 10SM FEW015 SCT120 BKN200 27/24 A2982 RMK AO2 SLP098 T02720239
KTPA 231353Z 21009KT 10SM FEW022 SCT120 BKN240 29/23 A2983 RMK AO2 SLP102 T02890233
KTPA 231453Z 21013G18KT 10SM FEW022 SCT065 BKN240 31/23 A2984 RMK AO2 SLP104 T03060233 53002
KTPA 231553Z 22018G23KT 10SM FEW022 SCT065 BKN220 30/24 A2983 RMK AO2 PK WND 21027/1534 LTG DSNT N AND NW SLP099 T03000244
KTPA 231653Z 31010KT 10SM SCT035 SCT070 BKN170 31/22 A2983 RMK AO2 LTG DSNT NE RAB04E14 SLP102 P0000 T03060222



Page loaded:  17:11 UTC  |   10:11 AM Pacific  |   11:11 AM Mountain  |   12:11 PM Central  |   01:11 PM Eastern

 

ADVISORIES

FORECASTS

FORECASTS

OBSERVATIONS

USER TOOLS

ABOUT US